Wetterdaten: Woche 02.07.12 - 08.07.12 (KW27)
Datum Zeit Temp. Auen Feucht Auen Luftdruck Regen Richtung Windben
02.07.2012 00:00 16,4 C 90 % 1019,9 hPa 0,0 mm O-SO 1,5 km/h (1 Bft)
02.07.2012 01:00 15,3 C 91 % 1018,7 hPa 0,0 mm O-SO 0,5 km/h (0 Bft)
02.07.2012 02:00 14,4 C 92 % 1018,0 hPa 0,0 mm O-SO 0,3 km/h (0 Bft)
02.07.2012 03:00 14,1 C 93 % 1017,4 hPa 0,0 mm O-SO 1,7 km/h (1 Bft)
02.07.2012 04:00 14,3 C 94 % 1016,9 hPa 0,0 mm SO 3,1 km/h (1 Bft)
02.07.2012 05:00 14,5 C 94 % 1016,6 hPa 0,0 mm O 4,5 km/h (1 Bft)
02.07.2012 06:00 16,2 C 91 % 1016,0 hPa 0,0 mm O 8,7 km/h (2 Bft)
02.07.2012 07:00 17,4 C 87 % 1015,6 hPa 0,0 mm NO 9,4 km/h (2 Bft)
02.07.2012 08:00 18,1 C 86 % 1014,7 hPa 0,0 mm O 17,4 km/h (3 Bft)
02.07.2012 09:00 19,8 C 83 % 1014,3 hPa 0,0 mm O 17,0 km/h (3 Bft)
02.07.2012 10:00 21,2 C 80 % 1014,1 hPa 0,0 mm O-SO 16,5 km/h (3 Bft)
02.07.2012 11:00 22,9 C 77 % 1013,3 hPa 0,0 mm O-SO 19,6 km/h (3 Bft)
02.07.2012 12:00 24,1 C 75 % 1012,8 hPa 0,0 mm NO 13,4 km/h (3 Bft)
02.07.2012 13:00 27,8 C 67 % 1012,4 hPa 0,0 mm W 12,9 km/h (3 Bft)
02.07.2012 14:00 28,9 C 64 % 1011,6 hPa 0,0 mm W 15,0 km/h (3 Bft)
02.07.2012 15:00 29,4 C 63 % 1011,3 hPa 0,0 mm W 14,0 km/h (3 Bft)
02.07.2012 16:00 28,9 C 64 % 1010,9 hPa 0,0 mm W 13,8 km/h (3 Bft)
02.07.2012 17:00 28,1 C 66 % 1011,0 hPa 0,0 mm W 12,5 km/h (3 Bft)
02.07.2012 18:00 26,5 C 67 % 1011,7 hPa 0,0 mm W 18,0 km/h (3 Bft)
02.07.2012 19:00 22,7 C 76 % 1012,3 hPa 0,0 mm W 17,7 km/h (3 Bft)
02.07.2012 20:00 20,8 C 81 % 1012,9 hPa 0,0 mm W 12,8 km/h (3 Bft)
02.07.2012 21:00 20,2 C 82 % 1013,0 hPa 0,0 mm W 8,8 km/h (2 Bft)
02.07.2012 22:00 20,1 C 82 % 1014,2 hPa 0,0 mm W 12,3 km/h (3 Bft)
02.07.2012 23:00 19,6 C 83 % 1015,1 hPa 0,0 mm W 7,8 km/h (2 Bft)
03.07.2012 00:00 19,4 C 83 % 1016,0 hPa 0,0 mm W 6,5 km/h (2 Bft)
03.07.2012 01:00 19,1 C 85 % 1016,1 hPa 0,0 mm W-SW 3,3 km/h (1 Bft)
03.07.2012 02:00 19,1 C 85 % 1016,2 hPa 0,4 mm W 6,6 km/h (2 Bft)
03.07.2012 03:00 18,2 C 89 % 1014,8 hPa 2,4 mm W 7,6 km/h (2 Bft)
03.07.2012 04:00 17,8 C 91 % 1015,2 hPa 0,0 mm W 6,7 km/h (2 Bft)
03.07.2012 05:00 17,7 C 91 % 1015,0 hPa 0,0 mm W 3,2 km/h (1 Bft)
03.07.2012 06:00 18,0 C 91 % 1015,3 hPa 0,0 mm W 3,6 km/h (1 Bft)
03.07.2012 07:00 18,3 C 91 % 1015,4 hPa 0,0 mm W 1,7 km/h (1 Bft)
03.07.2012 08:00 18,8 C 89 % 1015,6 hPa 0,2 mm W 1,5 km/h (1 Bft)
03.07.2012 09:00 18,9 C 90 % 1015,1 hPa 0,2 mm W 4,9 km/h (1 Bft)
03.07.2012 10:00 18,9 C 90 % 1015,6 hPa 0,0 mm W 3,7 km/h (1 Bft)
03.07.2012 11:00 19,1 C 89 % 1015,2 hPa 0,0 mm W-SW 3,6 km/h (1 Bft)
03.07.2012 12:00 19,8 C 88 % 1014,9 hPa 0,0 mm W 6,8 km/h (2 Bft)
03.07.2012 13:00 20,8 C 85 % 1014,4 hPa 0,0 mm W-SW 6,8 km/h (2 Bft)
03.07.2012 14:00 20,3 C 85 % 1014,8 hPa 0,0 mm W-SW 7,5 km/h (2 Bft)
03.07.2012 15:00 20,4 C 86 % 1014,6 hPa 0,0 mm W 7,2 km/h (2 Bft)
03.07.2012 16:00 19,8 C 88 % 1014,6 hPa 8,0 mm W 7,5 km/h (2 Bft)
03.07.2012 17:00 19,4 C 91 % 1014,8 hPa 1,6 mm W 6,8 km/h (2 Bft)
03.07.2012 18:00 19,5 C 91 % 1014,6 hPa 3,4 mm W 5,5 km/h (1 Bft)
03.07.2012 19:00 19,3 C 91 % 1015,2 hPa 0,2 mm W 4,9 km/h (1 Bft)
03.07.2012 20:00 18,9 C 91 % 1015,0 hPa 0,0 mm W 3,3 km/h (1 Bft)
03.07.2012 21:00 18,5 C 92 % 1015,4 hPa 0,0 mm W 1,9 km/h (1 Bft)
03.07.2012 22:00 18,3 C 92 % 1016,2 hPa 0,0 mm W 3,9 km/h (1 Bft)
03.07.2012 23:00 18,1 C 92 % 1016,5 hPa 3,4 mm W-NW 7,0 km/h (2 Bft)
04.07.2012 00:00 17,4 C 93 % 1016,1 hPa 0,2 mm W-SW 1,6 km/h (1 Bft)
04.07.2012 01:00 17,0 C 94 % 1015,8 hPa 0,0 mm W-SW 2,1 km/h (1 Bft)
04.07.2012 02:00 16,2 C 94 % 1015,5 hPa 0,2 mm W 0,4 km/h (0 Bft)
04.07.2012 03:00 15,2 C 94 % 1015,6 hPa 0,0 mm W 0,3 km/h (0 Bft)
04.07.2012 04:00 14,6 C 95 % 1015,4 hPa 0,0 mm W 0,0 km/h (0 Bft)
04.07.2012 05:00 14,1 C 95 % 1015,2 hPa 0,0 mm W 0,0 km/h (0 Bft)
04.07.2012 06:00 14,7 C 96 % 1014,9 hPa 0,0 mm W 0,0 km/h (0 Bft)
04.07.2012 07:00 15,8 C 96 % 1014,8 hPa 0,0 mm W 0,0 km/h (0 Bft)
04.07.2012 08:00 16,9 C 95 % 1014,6 hPa 0,0 mm W-SW 0,8 km/h (0 Bft)
04.07.2012 09:00 19,8 C 87 % 1014,2 hPa 0,0 mm O 4,8 km/h (1 Bft)
04.07.2012 10:00 21,2 C 84 % 1013,8 hPa 0,0 mm O 9,5 km/h (2 Bft)
04.07.2012 11:00 22,5 C 79 % 1013,3 hPa 0,0 mm O-SO 11,2 km/h (2 Bft)
04.07.2012 12:00 23,2 C 75 % 1012,8 hPa 0,0 mm O-NO 11,4 km/h (2 Bft)
04.07.2012 13:00 24,0 C 71 % 1012,5 hPa 0,0 mm O 10,3 km/h (2 Bft)
04.07.2012 14:00 24,7 C 69 % 1011,9 hPa 0,0 mm O-NO 10,5 km/h (2 Bft)
04.07.2012 15:00 25,2 C 69 % 1011,5 hPa 0,0 mm O-NO 10,2 km/h (2 Bft)
04.07.2012 16:00 25,2 C 69 % 1011,0 hPa 0,0 mm NO 11,6 km/h (2 Bft)
04.07.2012 17:00 24,3 C 73 % 1010,7 hPa 0,0 mm O 7,9 km/h (2 Bft)
04.07.2012 18:00 23,6 C 76 % 1010,3 hPa 0,0 mm SO 4,0 km/h (1 Bft)
04.07.2012 19:00 22,9 C 82 % 1010,4 hPa 0,0 mm S-SO 1,6 km/h (1 Bft)
04.07.2012 20:00 21,8 C 86 % 1010,4 hPa 0,0 mm O 1,1 km/h (0 Bft)
04.07.2012 21:00 21,6 C 87 % 1010,7 hPa 0,0 mm W 2,7 km/h (1 Bft)
04.07.2012 22:00 20,8 C 86 % 1011,2 hPa 0,8 mm W 8,2 km/h (2 Bft)
04.07.2012 23:00 18,9 C 90 % 1011,2 hPa 0,0 mm W 5,7 km/h (1 Bft)
05.07.2012 00:00 17,8 C 91 % 1011,7 hPa 0,0 mm W 6,8 km/h (2 Bft)
05.07.2012 01:00 17,8 C 92 % 1011,6 hPa 0,0 mm W 4,4 km/h (1 Bft)
05.07.2012 02:00 17,9 C 93 % 1011,4 hPa 0,0 mm W 2,5 km/h (1 Bft)
05.07.2012 03:00 17,3 C 93 % 1011,1 hPa 0,0 mm W 3,5 km/h (1 Bft)
05.07.2012 04:00 16,6 C 94 % 1010,9 hPa 0,0 mm W 3,7 km/h (1 Bft)
05.07.2012 05:00 16,9 C 93 % 1010,8 hPa 0,0 mm W 2,3 km/h (1 Bft)
05.07.2012 06:00 17,5 C 93 % 1010,4 hPa 0,0 mm W-SW 1,6 km/h (1 Bft)
05.07.2012 07:00 18,8 C 92 % 1010,4 hPa 0,0 mm O-NO 4,0 km/h (1 Bft)
05.07.2012 08:00 20,0 C 89 % 1010,4 hPa 0,0 mm O-SO 7,2 km/h (2 Bft)
05.07.2012 09:00 20,8 C 88 % 1010,5 hPa 0,0 mm O 8,8 km/h (2 Bft)
05.07.2012 10:00 22,2 C 84 % 1010,2 hPa 0,0 mm O-NO 10,8 km/h (2 Bft)
05.07.2012 11:00 23,6 C 80 % 1009,7 hPa 0,0 mm O-SO 9,3 km/h (2 Bft)
05.07.2012 12:00 25,1 C 78 % 1009,3 hPa 0,0 mm SO 9,3 km/h (2 Bft)
05.07.2012 13:00 26,4 C 74 % 1008,9 hPa 0,0 mm S-SO 7,2 km/h (2 Bft)
05.07.2012 14:00 26,7 C 73 % 1008,1 hPa 0,0 mm O 9,0 km/h (2 Bft)
05.07.2012 15:00 17,9 C 85 % 1010,1 hPa 15,2 mm O-SO 15,4 km/h (3 Bft)
05.07.2012 16:00 17,3 C 90 % 1009,8 hPa 0,0 mm O-SO 6,2 km/h (2 Bft)
05.07.2012 17:00 18,7 C 87 % 1009,1 hPa 0,0 mm O 10,9 km/h (2 Bft)
05.07.2012 18:00 19,8 C 85 % 1008,7 hPa 0,0 mm SO 6,3 km/h (2 Bft)
05.07.2012 19:00 20,5 C 86 % 1008,1 hPa 0,0 mm SO 4,3 km/h (1 Bft)
05.07.2012 20:00 20,2 C 89 % 1007,9 hPa 0,0 mm NO 1,2 km/h (1 Bft)
05.07.2012 21:00 18,6 C 92 % 1008,4 hPa 0,0 mm O 1,2 km/h (1 Bft)
05.07.2012 22:00 17,6 C 94 % 1009,0 hPa 0,0 mm S 2,4 km/h (1 Bft)
05.07.2012 23:00 17,4 C 94 % 1009,3 hPa 0,0 mm W 5,6 km/h (1 Bft)
06.07.2012 00:00 18,0 C 94 % 1010,3 hPa 0,0 mm W 4,8 km/h (1 Bft)
06.07.2012 01:00 17,4 C 94 % 1010,9 hPa 0,0 mm W 0,5 km/h (0 Bft)
06.07.2012 02:00 16,6 C 94 % 1011,0 hPa 0,0 mm W 0,8 km/h (0 Bft)
06.07.2012 03:00 15,4 C 94 % 1010,9 hPa 0,0 mm W 0,4 km/h (0 Bft)
06.07.2012 04:00 14,6 C 94 % 1010,3 hPa 0,2 mm W 0,8 km/h (0 Bft)
06.07.2012 05:00 14,1 C 95 % 1009,7 hPa 0,0 mm W 0,8 km/h (0 Bft)
06.07.2012 06:00 15,7 C 94 % 1009,5 hPa 0,0 mm W 1,6 km/h (1 Bft)
06.07.2012 07:00 18,2 C 91 % 1009,3 hPa 0,0 mm W 0,9 km/h (0 Bft)
06.07.2012 08:00 19,6 C 88 % 1009,6 hPa 0,0 mm O 5,6 km/h (1 Bft)
06.07.2012 09:00 21,9 C 82 % 1009,9 hPa 0,0 mm W 3,7 km/h (1 Bft)
06.07.2012 10:00 25,5 C 66 % 1010,3 hPa 0,0 mm W 13,4 km/h (3 Bft)
06.07.2012 11:00 25,4 C 67 % 1011,1 hPa 0,0 mm W 18,1 km/h (3 Bft)
06.07.2012 12:00 24,6 C 67 % 1011,5 hPa 0,0 mm W-SW 18,4 km/h (3 Bft)
06.07.2012 13:00 22,2 C 75 % 1011,9 hPa 1,0 mm W 13,3 km/h (3 Bft)
06.07.2012 14:00 19,2 C 85 % 1012,3 hPa 1,6 mm W 7,4 km/h (2 Bft)
06.07.2012 15:00 18,8 C 87 % 1012,0 hPa 0,2 mm N-NO 7,5 km/h (2 Bft)
06.07.2012 16:00 20,1 C 81 % 1011,5 hPa 0,0 mm N-NO 4,9 km/h (1 Bft)
06.07.2012 17:00 20,5 C 79 % 1011,8 hPa 0,0 mm O 5,1 km/h (1 Bft)
06.07.2012 18:00 20,8 C 78 % 1011,5 hPa 0,0 mm O-SO 3,1 km/h (1 Bft)
06.07.2012 19:00 20,6 C 80 % 1010,8 hPa 0,0 mm W-SW 2,9 km/h (1 Bft)
06.07.2012 20:00 19,2 C 87 % 1011,2 hPa 0,0 mm O 1,6 km/h (1 Bft)
06.07.2012 21:00 17,6 C 90 % 1011,9 hPa 0,0 mm W 1,7 km/h (1 Bft)
06.07.2012 22:00 16,5 C 92 % 1012,4 hPa 0,0 mm W 2,8 km/h (1 Bft)
06.07.2012 23:00 16,3 C 92 % 1012,8 hPa 0,0 mm W 4,7 km/h (1 Bft)
07.07.2012 00:00 15,7 C 93 % 1012,9 hPa 0,0 mm W-SW 1,6 km/h (1 Bft)
07.07.2012 01:00 15,0 C 94 % 1012,7 hPa 0,0 mm SW 0,8 km/h (0 Bft)
07.07.2012 02:00 14,8 C 94 % 1013,0 hPa 0,0 mm W-NW 2,9 km/h (1 Bft)
07.07.2012 03:00 15,0 C 94 % 1012,6 hPa 0,0 mm W 3,2 km/h (1 Bft)
07.07.2012 04:00 14,5 C 94 % 1012,4 hPa 0,0 mm W 1,7 km/h (1 Bft)
07.07.2012 05:00 14,6 C 94 % 1012,4 hPa 0,2 mm W 4,1 km/h (1 Bft)
07.07.2012 06:00 15,8 C 93 % 1012,3 hPa 0,0 mm W 2,9 km/h (1 Bft)
07.07.2012 07:00 17,6 C 90 % 1012,7 hPa 0,0 mm W 4,1 km/h (1 Bft)
07.07.2012 08:00 18,4 C 86 % 1013,1 hPa 0,0 mm W 11,3 km/h (2 Bft)
07.07.2012 09:00 18,3 C 86 % 1013,4 hPa 0,0 mm W 14,1 km/h (3 Bft)
07.07.2012 10:00 17,8 C 88 % 1013,9 hPa 0,0 mm W 11,1 km/h (2 Bft)
07.07.2012 11:00 19,1 C 83 % 1014,2 hPa 0,0 mm W 8,4 km/h (2 Bft)
07.07.2012 12:00 19,7 C 81 % 1014,4 hPa 0,0 mm W-SW 10,4 km/h (2 Bft)
07.07.2012 13:00 21,0 C 77 % 1014,4 hPa 0,0 mm W 9,5 km/h (2 Bft)
07.07.2012 14:00 20,5 C 77 % 1014,4 hPa 0,0 mm W 5,6 km/h (1 Bft)
07.07.2012 15:00 21,3 C 74 % 1014,3 hPa 0,0 mm W 9,3 km/h (2 Bft)
07.07.2012 16:00 20,9 C 77 % 1014,0 hPa 0,0 mm W-NW 5,7 km/h (1 Bft)
07.07.2012 17:00 21,0 C 77 % 1013,7 hPa 0,0 mm S-SO 4,8 km/h (1 Bft)
07.07.2012 18:00 20,9 C 77 % 1013,7 hPa 0,0 mm W-NW 4,0 km/h (1 Bft)
07.07.2012 19:00 20,3 C 81 % 1013,7 hPa 0,0 mm SW 0,5 km/h (0 Bft)
07.07.2012 20:00 19,5 C 85 % 1013,9 hPa 0,0 mm W-SW 0,8 km/h (0 Bft)
07.07.2012 21:00 17,9 C 89 % 1014,3 hPa 0,0 mm W-SW 0,7 km/h (0 Bft)
07.07.2012 22:00 16,2 C 91 % 1014,4 hPa 0,0 mm SW 1,6 km/h (1 Bft)
07.07.2012 23:00 15,1 C 93 % 1014,3 hPa 0,0 mm W-NW 1,5 km/h (1 Bft)
08.07.2012 00:00 14,5 C 93 % 1014,1 hPa 0,0 mm W 1,5 km/h (1 Bft)
08.07.2012 01:00 13,6 C 93 % 1013,8 hPa 0,0 mm W 0,0 km/h (0 Bft)
08.07.2012 02:00 12,9 C 94 % 1013,3 hPa 0,0 mm W 0,0 km/h (0 Bft)
08.07.2012 03:00 12,2 C 94 % 1012,8 hPa 0,0 mm W 0,4 km/h (0 Bft)
08.07.2012 04:00 12,0 C 94 % 1012,4 hPa 0,0 mm W 0,3 km/h (0 Bft)
08.07.2012 05:00 11,9 C 95 % 1011,7 hPa 0,0 mm W 2,0 km/h (1 Bft)
08.07.2012 06:00 13,5 C 94 % 1011,2 hPa 0,0 mm W 1,7 km/h (1 Bft)
08.07.2012 07:00 17,2 C 90 % 1010,4 hPa 0,0 mm N-NW 3,2 km/h (1 Bft)
08.07.2012 08:00 19,6 C 85 % 1009,6 hPa 0,0 mm SO 8,0 km/h (2 Bft)
08.07.2012 09:00 21,6 C 81 % 1009,1 hPa 0,0 mm O-SO 8,4 km/h (2 Bft)
08.07.2012 10:00 23,6 C 76 % 1008,5 hPa 0,0 mm SO 7,1 km/h (2 Bft)
08.07.2012 11:00 25,3 C 70 % 1008,4 hPa 0,0 mm O-SO 6,1 km/h (2 Bft)
08.07.2012 12:00 26,6 C 64 % 1008,4 hPa 0,0 mm SO 5,5 km/h (1 Bft)
08.07.2012 13:00 23,9 C 69 % 1010,4 hPa 0,4 mm W 22,7 km/h (4 Bft)
08.07.2012 14:00 25,5 C 63 % 1011,1 hPa 0,0 mm W 17,7 km/h (3 Bft)
08.07.2012 15:00 25,9 C 57 % 1010,9 hPa 0,0 mm W 13,6 km/h (3 Bft)
08.07.2012 16:00 25,9 C 55 % 1010,5 hPa 0,0 mm W-SW 9,8 km/h (2 Bft)
08.07.2012 17:00 25,8 C 54 % 1010,1 hPa 0,0 mm W 7,2 km/h (2 Bft)
08.07.2012 18:00 24,5 C 59 % 1010,0 hPa 0,0 mm N-NO 4,5 km/h (1 Bft)
08.07.2012 19:00 22,3 C 77 % 1010,1 hPa 0,0 mm SO 0,9 km/h (0 Bft)
08.07.2012 20:00 20,6 C 82 % 1010,8 hPa 0,0 mm SO 0,4 km/h (0 Bft)
08.07.2012 21:00 19,6 C 85 % 1011,4 hPa 0,2 mm W 4,0 km/h (1 Bft)
08.07.2012 22:00 19,1 C 88 % 1012,1 hPa 0,2 mm W 6,8 km/h (2 Bft)
08.07.2012 23:00 18,6 C 88 % 1012,6 hPa 0,6 mm N-NO 4,7 km/h (1 Bft)
Min-Datum _ 08.07.12 08.07.12 05.07.12 - - 02.07.12
_ Min-Zeit 03:55 16:45 14:45 - - 00:00
Minimum _ 11,8 C 51 % 1007,4 hPa - - 0,0 km/h (0 Bft)
Max-Datum _ 02.07.12 04.07.12 02.07.12 05.07.12 - 08.07.12
_ Max-Zeit 15:30 06:15 00:00 15:10 - 13:15
Maximum _ 29,8 C 96 % 1020,4 hPa 15,2 mm - 40,2 km/h
W (6 Bft)
Durchschnitt _ 19,5 C 85 % 1012,6 hPa #40,8 mm W 6,1 km/h (2 Bft)